sensor_id;sensor_type;location;lat;lon;timestamp;P1;durP1;ratioP1;P2;durP2;ratioP2
84133;SDS011;74235;48.688;9.708;2024-01-30T00:02:07;1.02;;;0.90;;
84133;SDS011;74235;48.688;9.708;2024-01-30T00:04:35;0.68;;;0.68;;
84133;SDS011;74235;48.688;9.708;2024-01-30T00:07:03;1.35;;;0.90;;
84133;SDS011;74235;48.688;9.708;2024-01-30T00:09:31;0.60;;;0.60;;
84133;SDS011;74235;48.688;9.708;2024-01-30T00:12:00;0.70;;;0.70;;
84133;SDS011;74235;48.688;9.708;2024-01-30T00:14:27;0.40;;;0.40;;
84133;SDS011;74235;48.688;9.708;2024-01-30T00:16:55;1.00;;;0.73;;
84133;SDS011;74235;48.688;9.708;2024-01-30T00:19:23;0.70;;;0.70;;
84133;SDS011;74235;48.688;9.708;2024-01-30T00:21:50;0.40;;;0.40;;
84133;SDS011;74235;48.688;9.708;2024-01-30T00:24:18;0.70;;;0.70;;
84133;SDS011;74235;48.688;9.708;2024-01-30T00:26:46;1.08;;;0.93;;
84133;SDS011;74235;48.688;9.708;2024-01-30T00:29:15;0.60;;;0.60;;
84133;SDS011;74235;48.688;9.708;2024-01-30T00:31:46;0.85;;;0.73;;
84133;SDS011;74235;48.688;9.708;2024-01-30T00:34:14;0.65;;;0.65;;
84133;SDS011;74235;48.688;9.708;2024-01-30T00:36:42;3.83;;;0.88;;
84133;SDS011;74235;48.688;9.708;2024-01-30T00:39:10;1.10;;;1.00;;
84133;SDS011;74235;48.688;9.708;2024-01-30T00:41:38;1.20;;;0.90;;
84133;SDS011;74235;48.688;9.708;2024-01-30T00:46:35;0.85;;;0.70;;
84133;SDS011;74235;48.688;9.708;2024-01-30T00:49:02;0.60;;;0.60;;
84133;SDS011;74235;48.688;9.708;2024-01-30T00:51:30;0.55;;;0.50;;
84133;SDS011;74235;48.688;9.708;2024-01-30T00:53:58;0.70;;;0.70;;
84133;SDS011;74235;48.688;9.708;2024-01-30T00:56:25;0.85;;;0.85;;
84133;SDS011;74235;48.688;9.708;2024-01-30T00:58:53;0.82;;;0.70;;
84133;SDS011;74235;48.688;9.708;2024-01-30T01:01:21;0.70;;;0.70;;
84133;SDS011;74235;48.688;9.708;2024-01-30T01:03:50;0.77;;;0.77;;
84133;SDS011;74235;48.688;9.708;2024-01-30T01:06:18;0.63;;;0.63;;
84133;SDS011;74235;48.688;9.708;2024-01-30T01:08:45;0.65;;;0.65;;
84133;SDS011;74235;48.688;9.708;2024-01-30T01:11:13;0.63;;;0.63;;
84133;SDS011;74235;48.688;9.708;2024-01-30T01:13:40;1.08;;;0.98;;
84133;SDS011;74235;48.688;9.708;2024-01-30T01:16:08;0.73;;;0.68;;
84133;SDS011;74235;48.688;9.708;2024-01-30T01:18:36;0.68;;;0.60;;
84133;SDS011;74235;48.688;9.708;2024-01-30T01:21:05;0.77;;;0.77;;
84133;SDS011;74235;48.688;9.708;2024-01-30T01:23:33;0.65;;;0.63;;
84133;SDS011;74235;48.688;9.708;2024-01-30T01:26:01;1.13;;;1.00;;
84133;SDS011;74235;48.688;9.708;2024-01-30T01:28:29;0.77;;;0.75;;
84133;SDS011;74235;48.688;9.708;2024-01-30T01:30:56;0.60;;;0.60;;
84133;SDS011;74235;48.688;9.708;2024-01-30T01:33:26;0.93;;;0.93;;
84133;SDS011;74235;48.688;9.708;2024-01-30T01:35:54;1.33;;;0.93;;
84133;SDS011;74235;48.688;9.708;2024-01-30T01:38:23;0.75;;;0.73;;
84133;SDS011;74235;48.688;9.708;2024-01-30T01:40:51;0.63;;;0.60;;
84133;SDS011;74235;48.688;9.708;2024-01-30T01:43:18;1.05;;;0.88;;
84133;SDS011;74235;48.688;9.708;2024-01-30T01:45:46;0.50;;;0.50;;
84133;SDS011;74235;48.688;9.708;2024-01-30T01:48:14;0.98;;;0.82;;
84133;SDS011;74235;48.688;9.708;2024-01-30T01:50:42;0.43;;;0.43;;
84133;SDS011;74235;48.688;9.708;2024-01-30T01:53:11;1.10;;;1.00;;
84133;SDS011;74235;48.688;9.708;2024-01-30T01:55:41;0.73;;;0.73;;
84133;SDS011;74235;48.688;9.708;2024-01-30T01:58:09;0.70;;;0.70;;
84133;SDS011;74235;48.688;9.708;2024-01-30T02:00:37;0.63;;;0.60;;
84133;SDS011;74235;48.688;9.708;2024-01-30T02:03:10;0.65;;;0.65;;
84133;SDS011;74235;48.688;9.708;2024-01-30T02:05:41;0.68;;;0.65;;
84133;SDS011;74235;48.688;9.708;2024-01-30T02:08:09;0.73;;;0.73;;
84133;SDS011;74235;48.688;9.708;2024-01-30T02:10:37;0.82;;;0.80;;
84133;SDS011;74235;48.688;9.708;2024-01-30T02:13:06;0.77;;;0.77;;
84133;SDS011;74235;48.688;9.708;2024-01-30T02:15:34;1.00;;;0.47;;
84133;SDS011;74235;48.688;9.708;2024-01-30T02:18:02;0.70;;;0.70;;
84133;SDS011;74235;48.688;9.708;2024-01-30T02:20:32;0.77;;;0.77;;
84133;SDS011;74235;48.688;9.708;2024-01-30T02:23:03;0.57;;;0.57;;
84133;SDS011;74235;48.688;9.708;2024-01-30T02:25:32;1.00;;;0.88;;
84133;SDS011;74235;48.688;9.708;2024-01-30T02:28:03;0.63;;;0.60;;
84133;SDS011;74235;48.688;9.708;2024-01-30T02:30:31;0.57;;;0.57;;
84133;SDS011;74235;48.688;9.708;2024-01-30T02:32:58;0.80;;;0.73;;
84133;SDS011;74235;48.688;9.708;2024-01-30T02:35:26;0.63;;;0.63;;
84133;SDS011;74235;48.688;9.708;2024-01-30T02:37:53;0.80;;;0.80;;
84133;SDS011;74235;48.688;9.708;2024-01-30T02:40:22;1.02;;;0.90;;
84133;SDS011;74235;48.688;9.708;2024-01-30T02:42:50;0.50;;;0.50;;
84133;SDS011;74235;48.688;9.708;2024-01-30T02:45:18;0.90;;;0.90;;
84133;SDS011;74235;48.688;9.708;2024-01-30T02:50:13;0.63;;;0.60;;
84133;SDS011;74235;48.688;9.708;2024-01-30T02:52:42;0.60;;;0.60;;
84133;SDS011;74235;48.688;9.708;2024-01-30T02:55:13;0.63;;;0.63;;
84133;SDS011;74235;48.688;9.708;2024-01-30T02:57:42;0.77;;;0.73;;
84133;SDS011;74235;48.688;9.708;2024-01-30T03:00:10;0.63;;;0.63;;
84133;SDS011;74235;48.688;9.708;2024-01-30T03:02:38;0.55;;;0.55;;
84133;SDS011;74235;48.688;9.708;2024-01-30T03:05:07;0.80;;;0.80;;
84133;SDS011;74235;48.688;9.708;2024-01-30T03:07:35;1.15;;;0.85;;
84133;SDS011;74235;48.688;9.708;2024-01-30T03:10:04;0.40;;;0.40;;
84133;SDS011;74235;48.688;9.708;2024-01-30T03:12:33;0.63;;;0.63;;
84133;SDS011;74235;48.688;9.708;2024-01-30T03:15:02;0.70;;;0.70;;
84133;SDS011;74235;48.688;9.708;2024-01-30T03:17:30;0.57;;;0.55;;
84133;SDS011;74235;48.688;9.708;2024-01-30T03:19:58;0.32;;;0.32;;
84133;SDS011;74235;48.688;9.708;2024-01-30T03:22:26;1.13;;;0.88;;
84133;SDS011;74235;48.688;9.708;2024-01-30T03:24:53;1.48;;;1.05;;
84133;SDS011;74235;48.688;9.708;2024-01-30T03:27:21;0.90;;;0.90;;
84133;SDS011;74235;48.688;9.708;2024-01-30T03:29:49;0.68;;;0.68;;
84133;SDS011;74235;48.688;9.708;2024-01-30T03:32:18;0.85;;;0.85;;
84133;SDS011;74235;48.688;9.708;2024-01-30T03:34:45;0.60;;;0.60;;
84133;SDS011;74235;48.688;9.708;2024-01-30T03:37:13;0.90;;;0.70;;
84133;SDS011;74235;48.688;9.708;2024-01-30T03:39:41;0.80;;;0.80;;
84133;SDS011;74235;48.688;9.708;2024-01-30T03:42:09;0.47;;;0.47;;
84133;SDS011;74235;48.688;9.708;2024-01-30T03:44:36;0.60;;;0.60;;
84133;SDS011;74235;48.688;9.708;2024-01-30T03:47:04;0.50;;;0.50;;
84133;SDS011;74235;48.688;9.708;2024-01-30T03:49:33;1.58;;;1.08;;
84133;SDS011;74235;48.688;9.708;2024-01-30T03:52:01;0.73;;;0.60;;
84133;SDS011;74235;48.688;9.708;2024-01-30T03:54:29;0.70;;;0.70;;
84133;SDS011;74235;48.688;9.708;2024-01-30T03:56:56;0.80;;;0.80;;
84133;SDS011;74235;48.688;9.708;2024-01-30T03:59:24;0.43;;;0.43;;
84133;SDS011;74235;48.688;9.708;2024-01-30T04:01:52;0.85;;;0.80;;
84133;SDS011;74235;48.688;9.708;2024-01-30T04:04:20;0.75;;;0.75;;
84133;SDS011;74235;48.688;9.708;2024-01-30T04:06:49;0.98;;;0.85;;
84133;SDS011;74235;48.688;9.708;2024-01-30T04:09:17;0.52;;;0.52;;
84133;SDS011;74235;48.688;9.708;2024-01-30T04:11:45;0.68;;;0.68;;
84133;SDS011;74235;48.688;9.708;2024-01-30T04:14:13;0.52;;;0.52;;
84133;SDS011;74235;48.688;9.708;2024-01-30T04:16:41;0.52;;;0.52;;
84133;SDS011;74235;48.688;9.708;2024-01-30T04:19:08;1.02;;;0.82;;
84133;SDS011;74235;48.688;9.708;2024-01-30T04:21:36;0.90;;;0.90;;
84133;SDS011;74235;48.688;9.708;2024-01-30T04:24:05;0.57;;;0.52;;
84133;SDS011;74235;48.688;9.708;2024-01-30T04:26:33;0.63;;;0.63;;
84133;SDS011;74235;48.688;9.708;2024-01-30T04:29:01;0.63;;;0.63;;
84133;SDS011;74235;48.688;9.708;2024-01-30T04:31:28;0.60;;;0.60;;
84133;SDS011;74235;48.688;9.708;2024-01-30T04:33:56;0.60;;;0.60;;
84133;SDS011;74235;48.688;9.708;2024-01-30T04:36:24;0.60;;;0.60;;
84133;SDS011;74235;48.688;9.708;2024-01-30T04:38:51;0.70;;;0.70;;
84133;SDS011;74235;48.688;9.708;2024-01-30T04:41:20;0.57;;;0.57;;
84133;SDS011;74235;48.688;9.708;2024-01-30T04:43:48;0.50;;;0.50;;
84133;SDS011;74235;48.688;9.708;2024-01-30T04:46:16;0.43;;;0.43;;
84133;SDS011;74235;48.688;9.708;2024-01-30T04:48:43;0.47;;;0.47;;
84133;SDS011;74235;48.688;9.708;2024-01-30T04:51:11;0.57;;;0.57;;
84133;SDS011;74235;48.688;9.708;2024-01-30T04:53:39;0.52;;;0.52;;
84133;SDS011;74235;48.688;9.708;2024-01-30T04:56:07;0.43;;;0.43;;
84133;SDS011;74235;48.688;9.708;2024-01-30T04:58:36;0.50;;;0.50;;
84133;SDS011;74235;48.688;9.708;2024-01-30T05:01:03;0.60;;;0.60;;
84133;SDS011;74235;48.688;9.708;2024-01-30T05:03:32;0.40;;;0.40;;
84133;SDS011;74235;48.688;9.708;2024-01-30T05:06:01;0.73;;;0.73;;
84133;SDS011;74235;48.688;9.708;2024-01-30T05:08:29;0.88;;;0.70;;
84133;SDS011;74235;48.688;9.708;2024-01-30T05:10:56;0.93;;;0.68;;
84133;SDS011;74235;48.688;9.708;2024-01-30T05:13:27;0.75;;;0.60;;
84133;SDS011;74235;48.688;9.708;2024-01-30T05:15:56;0.65;;;0.65;;
84133;SDS011;74235;48.688;9.708;2024-01-30T05:18:23;0.85;;;0.73;;
84133;SDS011;74235;48.688;9.708;2024-01-30T05:20:52;0.63;;;0.63;;
84133;SDS011;74235;48.688;9.708;2024-01-30T05:23:19;0.70;;;0.70;;
84133;SDS011;74235;48.688;9.708;2024-01-30T05:25:47;0.70;;;0.70;;
84133;SDS011;74235;48.688;9.708;2024-01-30T05:28:15;0.57;;;0.50;;
84133;SDS011;74235;48.688;9.708;2024-01-30T05:30:42;0.60;;;0.60;;
84133;SDS011;74235;48.688;9.708;2024-01-30T05:33:11;0.90;;;0.80;;
84133;SDS011;74235;48.688;9.708;2024-01-30T05:35:40;0.45;;;0.45;;
84133;SDS011;74235;48.688;9.708;2024-01-30T05:38:08;0.68;;;0.68;;
84133;SDS011;74235;48.688;9.708;2024-01-30T05:40:35;0.60;;;0.60;;
84133;SDS011;74235;48.688;9.708;2024-01-30T05:43:03;0.88;;;0.60;;
84133;SDS011;74235;48.688;9.708;2024-01-30T05:45:31;0.75;;;0.70;;
84133;SDS011;74235;48.688;9.708;2024-01-30T05:47:58;0.43;;;0.43;;
84133;SDS011;74235;48.688;9.708;2024-01-30T05:50:28;0.70;;;0.70;;
84133;SDS011;74235;48.688;9.708;2024-01-30T05:52:55;0.50;;;0.50;;
84133;SDS011;74235;48.688;9.708;2024-01-30T05:55:23;0.52;;;0.52;;
84133;SDS011;74235;48.688;9.708;2024-01-30T05:57:51;0.80;;;0.68;;
84133;SDS011;74235;48.688;9.708;2024-01-30T06:00:19;0.70;;;0.57;;
84133;SDS011;74235;48.688;9.708;2024-01-30T06:02:47;0.57;;;0.57;;
84133;SDS011;74235;48.688;9.708;2024-01-30T06:05:15;0.65;;;0.52;;
84133;SDS011;74235;48.688;9.708;2024-01-30T06:07:44;0.70;;;0.70;;
84133;SDS011;74235;48.688;9.708;2024-01-30T06:10:12;0.68;;;0.68;;
84133;SDS011;74235;48.688;9.708;2024-01-30T06:12:40;0.73;;;0.73;;
84133;SDS011;74235;48.688;9.708;2024-01-30T06:15:08;1.30;;;1.20;;
84133;SDS011;74235;48.688;9.708;2024-01-30T06:17:36;1.25;;;1.15;;
84133;SDS011;74235;48.688;9.708;2024-01-30T06:20:05;2.17;;;1.40;;
84133;SDS011;74235;48.688;9.708;2024-01-30T06:22:33;3.13;;;1.00;;
84133;SDS011;74235;48.688;9.708;2024-01-30T06:25:02;1.55;;;1.25;;
84133;SDS011;74235;48.688;9.708;2024-01-30T06:27:31;1.48;;;1.10;;
84133;SDS011;74235;48.688;9.708;2024-01-30T06:29:58;2.33;;;1.27;;
84133;SDS011;74235;48.688;9.708;2024-01-30T06:32:26;1.75;;;1.38;;
84133;SDS011;74235;48.688;9.708;2024-01-30T06:34:56;2.35;;;1.70;;
84133;SDS011;74235;48.688;9.708;2024-01-30T06:37:23;4.13;;;2.00;;
84133;SDS011;74235;48.688;9.708;2024-01-30T06:39:51;2.95;;;1.50;;
84133;SDS011;74235;48.688;9.708;2024-01-30T06:42:21;2.67;;;1.50;;
84133;SDS011;74235;48.688;9.708;2024-01-30T06:44:48;2.47;;;1.50;;
84133;SDS011;74235;48.688;9.708;2024-01-30T06:47:16;1.40;;;1.17;;
84133;SDS011;74235;48.688;9.708;2024-01-30T06:49:44;1.42;;;1.20;;
84133;SDS011;74235;48.688;9.708;2024-01-30T06:52:12;1.52;;;1.30;;
84133;SDS011;74235;48.688;9.708;2024-01-30T06:54:40;1.13;;;1.02;;
84133;SDS011;74235;48.688;9.708;2024-01-30T06:57:07;1.20;;;1.10;;
84133;SDS011;74235;48.688;9.708;2024-01-30T06:59:40;0.88;;;0.82;;
84133;SDS011;74235;48.688;9.708;2024-01-30T07:02:10;1.10;;;1.00;;
84133;SDS011;74235;48.688;9.708;2024-01-30T07:04:38;1.35;;;1.20;;
84133;SDS011;74235;48.688;9.708;2024-01-30T07:07:13;0.90;;;0.90;;
84133;SDS011;74235;48.688;9.708;2024-01-30T07:09:42;0.75;;;0.75;;
84133;SDS011;74235;48.688;9.708;2024-01-30T07:12:10;1.00;;;0.75;;
84133;SDS011;74235;48.688;9.708;2024-01-30T07:14:39;1.13;;;1.02;;
84133;SDS011;74235;48.688;9.708;2024-01-30T07:17:07;2.47;;;1.30;;
84133;SDS011;74235;48.688;9.708;2024-01-30T07:19:34;0.85;;;0.85;;
84133;SDS011;74235;48.688;9.708;2024-01-30T07:22:02;1.23;;;1.13;;
84133;SDS011;74235;48.688;9.708;2024-01-30T07:24:30;0.88;;;0.88;;
84133;SDS011;74235;48.688;9.708;2024-01-30T07:26:58;1.13;;;0.90;;
84133;SDS011;74235;48.688;9.708;2024-01-30T07:29:25;2.30;;;0.80;;
84133;SDS011;74235;48.688;9.708;2024-01-30T07:31:55;0.80;;;0.80;;
84133;SDS011;74235;48.688;9.708;2024-01-30T07:34:22;0.82;;;0.80;;
84133;SDS011;74235;48.688;9.708;2024-01-30T07:36:50;1.08;;;0.98;;
84133;SDS011;74235;48.688;9.708;2024-01-30T07:39:22;0.60;;;0.60;;
84133;SDS011;74235;48.688;9.708;2024-01-30T07:41:49;0.85;;;0.70;;
84133;SDS011;74235;48.688;9.708;2024-01-30T07:44:17;1.95;;;0.98;;
84133;SDS011;74235;48.688;9.708;2024-01-30T07:46:45;1.00;;;0.90;;
84133;SDS011;74235;48.688;9.708;2024-01-30T07:49:14;0.75;;;0.75;;
84133;SDS011;74235;48.688;9.708;2024-01-30T07:51:42;2.03;;;1.02;;
84133;SDS011;74235;48.688;9.708;2024-01-30T07:54:11;3.45;;;2.10;;
84133;SDS011;74235;48.688;9.708;2024-01-30T07:56:39;3.00;;;2.28;;
84133;SDS011;74235;48.688;9.708;2024-01-30T07:59:09;2.90;;;2.08;;
84133;SDS011;74235;48.688;9.708;2024-01-30T08:01:37;2.50;;;1.80;;
84133;SDS011;74235;48.688;9.708;2024-01-30T08:04:05;2.75;;;2.03;;
84133;SDS011;74235;48.688;9.708;2024-01-30T08:06:34;3.00;;;1.98;;
84133;SDS011;74235;48.688;9.708;2024-01-30T08:09:02;2.97;;;1.98;;
84133;SDS011;74235;48.688;9.708;2024-01-30T08:11:30;2.70;;;1.88;;
84133;SDS011;74235;48.688;9.708;2024-01-30T08:13:58;2.83;;;1.70;;
84133;SDS011;74235;48.688;9.708;2024-01-30T08:16:26;3.92;;;1.77;;
84133;SDS011;74235;48.688;9.708;2024-01-30T08:18:54;3.35;;;2.10;;
84133;SDS011;74235;48.688;9.708;2024-01-30T08:21:25;2.47;;;1.80;;
84133;SDS011;74235;48.688;9.708;2024-01-30T08:23:55;2.38;;;1.85;;
84133;SDS011;74235;48.688;9.708;2024-01-30T08:26:22;2.45;;;1.60;;
84133;SDS011;74235;48.688;9.708;2024-01-30T08:28:50;2.63;;;1.95;;
84133;SDS011;74235;48.688;9.708;2024-01-30T08:31:19;4.72;;;1.80;;
84133;SDS011;74235;48.688;9.708;2024-01-30T08:33:47;2.28;;;1.60;;
84133;SDS011;74235;48.688;9.708;2024-01-30T08:36:16;2.10;;;1.58;;
84133;SDS011;74235;48.688;9.708;2024-01-30T08:38:44;2.63;;;1.80;;
84133;SDS011;74235;48.688;9.708;2024-01-30T08:41:14;2.78;;;1.75;;
84133;SDS011;74235;48.688;9.708;2024-01-30T08:43:41;2.35;;;1.70;;
84133;SDS011;74235;48.688;9.708;2024-01-30T08:46:09;2.70;;;1.90;;
84133;SDS011;74235;48.688;9.708;2024-01-30T08:48:37;3.35;;;1.77;;
84133;SDS011;74235;48.688;9.708;2024-01-30T08:51:04;2.58;;;2.03;;
84133;SDS011;74235;48.688;9.708;2024-01-30T08:53:35;3.22;;;1.77;;
84133;SDS011;74235;48.688;9.708;2024-01-30T08:56:03;2.40;;;1.90;;
84133;SDS011;74235;48.688;9.708;2024-01-30T08:58:33;2.50;;;1.80;;
84133;SDS011;74235;48.688;9.708;2024-01-30T09:01:01;2.45;;;1.80;;
84133;SDS011;74235;48.688;9.708;2024-01-30T09:03:31;1.98;;;1.55;;
84133;SDS011;74235;48.688;9.708;2024-01-30T09:05:58;2.25;;;1.70;;
84133;SDS011;74235;48.688;9.708;2024-01-30T09:08:26;2.55;;;1.70;;
84133;SDS011;74235;48.688;9.708;2024-01-30T09:10:54;1.95;;;1.60;;
84133;SDS011;74235;48.688;9.708;2024-01-30T09:13:22;4.32;;;1.80;;
84133;SDS011;74235;48.688;9.708;2024-01-30T09:15:51;3.00;;;1.75;;
84133;SDS011;74235;48.688;9.708;2024-01-30T09:18:19;2.10;;;1.60;;
84133;SDS011;74235;48.688;9.708;2024-01-30T09:20:50;2.35;;;1.65;;
84133;SDS011;74235;48.688;9.708;2024-01-30T09:23:18;2.65;;;1.75;;
84133;SDS011;74235;48.688;9.708;2024-01-30T09:25:46;2.55;;;1.92;;
84133;SDS011;74235;48.688;9.708;2024-01-30T09:28:14;1.70;;;1.55;;
84133;SDS011;74235;48.688;9.708;2024-01-30T09:30:42;3.53;;;1.98;;
84133;SDS011;74235;48.688;9.708;2024-01-30T09:33:11;5.05;;;1.70;;
84133;SDS011;74235;48.688;9.708;2024-01-30T09:35:39;2.30;;;1.70;;
84133;SDS011;74235;48.688;9.708;2024-01-30T09:38:07;2.53;;;1.92;;
84133;SDS011;74235;48.688;9.708;2024-01-30T09:40:34;3.65;;;1.60;;
84133;SDS011;74235;48.688;9.708;2024-01-30T09:43:02;2.90;;;1.90;;
84133;SDS011;74235;48.688;9.708;2024-01-30T09:45:31;2.90;;;1.80;;
84133;SDS011;74235;48.688;9.708;2024-01-30T09:48:00;2.50;;;1.90;;
84133;SDS011;74235;48.688;9.708;2024-01-30T09:50:30;1.98;;;1.52;;
84133;SDS011;74235;48.688;9.708;2024-01-30T09:52:58;2.38;;;1.63;;
84133;SDS011;74235;48.688;9.708;2024-01-30T09:55:27;2.10;;;1.63;;
84133;SDS011;74235;48.688;9.708;2024-01-30T09:57:55;3.65;;;2.05;;
84133;SDS011;74235;48.688;9.708;2024-01-30T10:00:23;2.90;;;2.08;;
84133;SDS011;74235;48.688;9.708;2024-01-30T10:02:54;3.40;;;1.90;;
84133;SDS011;74235;48.688;9.708;2024-01-30T10:05:22;5.25;;;2.03;;
84133;SDS011;74235;48.688;9.708;2024-01-30T10:07:56;2.55;;;1.83;;
84133;SDS011;74235;48.688;9.708;2024-01-30T10:10:24;3.08;;;1.80;;
84133;SDS011;74235;48.688;9.708;2024-01-30T10:12:52;3.80;;;1.75;;
84133;SDS011;74235;48.688;9.708;2024-01-30T10:15:21;1.42;;;1.30;;
84133;SDS011;74235;48.688;9.708;2024-01-30T10:17:49;2.42;;;1.52;;
84133;SDS011;74235;48.688;9.708;2024-01-30T10:20:16;2.35;;;1.58;;
84133;SDS011;74235;48.688;9.708;2024-01-30T10:22:46;3.83;;;1.60;;
84133;SDS011;74235;48.688;9.708;2024-01-30T10:25:15;2.25;;;1.63;;
84133;SDS011;74235;48.688;9.708;2024-01-30T10:27:44;2.40;;;1.70;;
84133;SDS011;74235;48.688;9.708;2024-01-30T10:30:12;2.08;;;1.70;;
84133;SDS011;74235;48.688;9.708;2024-01-30T10:32:39;5.82;;;2.00;;
84133;SDS011;74235;48.688;9.708;2024-01-30T10:35:07;3.13;;;1.73;;
84133;SDS011;74235;48.688;9.708;2024-01-30T10:37:36;5.05;;;1.90;;
84133;SDS011;74235;48.688;9.708;2024-01-30T10:40:04;3.70;;;1.75;;
84133;SDS011;74235;48.688;9.708;2024-01-30T10:42:37;2.17;;;1.60;;
84133;SDS011;74235;48.688;9.708;2024-01-30T10:45:10;3.15;;;1.88;;
84133;SDS011;74235;48.688;9.708;2024-01-30T10:47:43;4.22;;;2.50;;
84133;SDS011;74235;48.688;9.708;2024-01-30T10:50:17;6.65;;;1.88;;
84133;SDS011;74235;48.688;9.708;2024-01-30T10:52:46;2.50;;;1.50;;
84133;SDS011;74235;48.688;9.708;2024-01-30T10:55:15;2.42;;;1.83;;
84133;SDS011;74235;48.688;9.708;2024-01-30T10:57:44;2.20;;;1.50;;
84133;SDS011;74235;48.688;9.708;2024-01-30T11:00:13;2.22;;;1.60;;
84133;SDS011;74235;48.688;9.708;2024-01-30T11:02:43;3.17;;;1.33;;
84133;SDS011;74235;48.688;9.708;2024-01-30T11:05:13;2.50;;;1.50;;
84133;SDS011;74235;48.688;9.708;2024-01-30T11:07:43;4.13;;;1.70;;
84133;SDS011;74235;48.688;9.708;2024-01-30T11:10:11;3.05;;;1.70;;
84133;SDS011;74235;48.688;9.708;2024-01-30T11:12:42;5.28;;;1.80;;
84133;SDS011;74235;48.688;9.708;2024-01-30T11:15:14;1.70;;;1.50;;
84133;SDS011;74235;48.688;9.708;2024-01-30T11:17:43;2.35;;;1.50;;
84133;SDS011;74235;48.688;9.708;2024-01-30T11:20:12;2.65;;;1.70;;
84133;SDS011;74235;48.688;9.708;2024-01-30T11:22:44;2.70;;;1.77;;
84133;SDS011;74235;48.688;9.708;2024-01-30T11:25:13;3.08;;;1.52;;
84133;SDS011;74235;48.688;9.708;2024-01-30T11:27:42;2.60;;;1.77;;
84133;SDS011;74235;48.688;9.708;2024-01-30T11:30:20;2.65;;;1.70;;
84133;SDS011;74235;48.688;9.708;2024-01-30T11:32:57;1.95;;;1.63;;
84133;SDS011;74235;48.688;9.708;2024-01-30T11:35:26;2.40;;;1.63;;
84133;SDS011;74235;48.688;9.708;2024-01-30T11:37:54;2.60;;;1.70;;
84133;SDS011;74235;48.688;9.708;2024-01-30T11:40:22;3.13;;;1.73;;
84133;SDS011;74235;48.688;9.708;2024-01-30T11:42:51;2.35;;;1.50;;
84133;SDS011;74235;48.688;9.708;2024-01-30T11:45:20;2.30;;;1.70;;
84133;SDS011;74235;48.688;9.708;2024-01-30T11:47:48;1.95;;;1.50;;
84133;SDS011;74235;48.688;9.708;2024-01-30T11:50:16;2.38;;;1.65;;
84133;SDS011;74235;48.688;9.708;2024-01-30T11:52:44;1.83;;;1.63;;
84133;SDS011;74235;48.688;9.708;2024-01-30T11:55:12;2.72;;;2.00;;
84133;SDS011;74235;48.688;9.708;2024-01-30T11:57:41;2.22;;;1.73;;
84133;SDS011;74235;48.688;9.708;2024-01-30T12:00:13;4.03;;;1.88;;
84133;SDS011;74235;48.688;9.708;2024-01-30T12:02:44;3.67;;;1.80;;
84133;SDS011;74235;48.688;9.708;2024-01-30T12:05:16;4.90;;;1.90;;
84133;SDS011;74235;48.688;9.708;2024-01-30T12:07:46;2.72;;;1.98;;
84133;SDS011;74235;48.688;9.708;2024-01-30T12:10:14;3.20;;;1.75;;
84133;SDS011;74235;48.688;9.708;2024-01-30T12:12:43;2.67;;;2.00;;
84133;SDS011;74235;48.688;9.708;2024-01-30T12:15:12;3.00;;;1.90;;
84133;SDS011;74235;48.688;9.708;2024-01-30T12:17:41;2.75;;;1.67;;
84133;SDS011;74235;48.688;9.708;2024-01-30T12:20:11;2.95;;;1.90;;
84133;SDS011;74235;48.688;9.708;2024-01-30T12:22:40;2.70;;;1.90;;
84133;SDS011;74235;48.688;9.708;2024-01-30T12:25:09;3.38;;;1.92;;
84133;SDS011;74235;48.688;9.708;2024-01-30T12:27:38;3.50;;;2.10;;
84133;SDS011;74235;48.688;9.708;2024-01-30T12:30:06;3.28;;;1.83;;
84133;SDS011;74235;48.688;9.708;2024-01-30T12:32:35;2.53;;;1.70;;
84133;SDS011;74235;48.688;9.708;2024-01-30T12:35:07;2.45;;;1.80;;
84133;SDS011;74235;48.688;9.708;2024-01-30T12:37:37;2.40;;;1.70;;
84133;SDS011;74235;48.688;9.708;2024-01-30T12:40:05;2.63;;;1.75;;
84133;SDS011;74235;48.688;9.708;2024-01-30T12:42:34;2.70;;;1.90;;
84133;SDS011;74235;48.688;9.708;2024-01-30T12:45:02;2.40;;;1.73;;
84133;SDS011;74235;48.688;9.708;2024-01-30T12:47:31;2.13;;;1.45;;
84133;SDS011;74235;48.688;9.708;2024-01-30T12:49:59;2.97;;;1.95;;
84133;SDS011;74235;48.688;9.708;2024-01-30T12:52:27;2.72;;;1.83;;
84133;SDS011;74235;48.688;9.708;2024-01-30T12:54:56;2.25;;;1.52;;
84133;SDS011;74235;48.688;9.708;2024-01-30T12:57:25;2.53;;;1.70;;
84133;SDS011;74235;48.688;9.708;2024-01-30T12:59:53;2.53;;;1.70;;
84133;SDS011;74235;48.688;9.708;2024-01-30T13:02:21;2.75;;;1.85;;
84133;SDS011;74235;48.688;9.708;2024-01-30T13:04:49;3.50;;;1.80;;
84133;SDS011;74235;48.688;9.708;2024-01-30T13:07:17;2.65;;;1.73;;
84133;SDS011;74235;48.688;9.708;2024-01-30T13:09:45;1.80;;;1.40;;
84133;SDS011;74235;48.688;9.708;2024-01-30T13:12:14;3.15;;;1.67;;
84133;SDS011;74235;48.688;9.708;2024-01-30T13:14:42;2.55;;;1.63;;
84133;SDS011;74235;48.688;9.708;2024-01-30T13:17:10;2.40;;;1.80;;
84133;SDS011;74235;48.688;9.708;2024-01-30T13:19:38;1.70;;;1.50;;
84133;SDS011;74235;48.688;9.708;2024-01-30T13:22:06;1.67;;;1.38;;
84133;SDS011;74235;48.688;9.708;2024-01-30T13:24:33;1.98;;;1.50;;
84133;SDS011;74235;48.688;9.708;2024-01-30T13:27:01;4.35;;;1.50;;
84133;SDS011;74235;48.688;9.708;2024-01-30T13:29:32;2.08;;;1.70;;
84133;SDS011;74235;48.688;9.708;2024-01-30T13:31:59;1.67;;;1.42;;
84133;SDS011;74235;48.688;9.708;2024-01-30T13:34:27;2.20;;;1.50;;
84133;SDS011;74235;48.688;9.708;2024-01-30T13:36:55;1.35;;;1.25;;
84133;SDS011;74235;48.688;9.708;2024-01-30T13:39:24;1.80;;;1.50;;
84133;SDS011;74235;48.688;9.708;2024-01-30T13:41:59;1.90;;;1.50;;
84133;SDS011;74235;48.688;9.708;2024-01-30T13:44:26;2.05;;;1.70;;
84133;SDS011;74235;48.688;9.708;2024-01-30T13:46:56;1.55;;;1.13;;
84133;SDS011;74235;48.688;9.708;2024-01-30T13:49:23;2.88;;;1.70;;
84133;SDS011;74235;48.688;9.708;2024-01-30T13:51:51;3.38;;;1.70;;
84133;SDS011;74235;48.688;9.708;2024-01-30T13:54:21;1.73;;;1.55;;
84133;SDS011;74235;48.688;9.708;2024-01-30T13:56:49;2.33;;;1.80;;
84133;SDS011;74235;48.688;9.708;2024-01-30T13:59:17;3.13;;;1.55;;
84133;SDS011;74235;48.688;9.708;2024-01-30T14:01:51;2.97;;;1.73;;
84133;SDS011;74235;48.688;9.708;2024-01-30T14:04:20;2.78;;;1.80;;
84133;SDS011;74235;48.688;9.708;2024-01-30T14:06:49;2.50;;;1.80;;
84133;SDS011;74235;48.688;9.708;2024-01-30T14:09:27;3.25;;;2.03;;
84133;SDS011;74235;48.688;9.708;2024-01-30T14:11:56;2.80;;;1.98;;
84133;SDS011;74235;48.688;9.708;2024-01-30T14:14:23;2.72;;;1.73;;
84133;SDS011;74235;48.688;9.708;2024-01-30T14:16:51;5.20;;;2.22;;
84133;SDS011;74235;48.688;9.708;2024-01-30T14:19:21;3.55;;;1.90;;
84133;SDS011;74235;48.688;9.708;2024-01-30T14:21:49;5.15;;;2.00;;
84133;SDS011;74235;48.688;9.708;2024-01-30T14:24:17;3.70;;;1.98;;
84133;SDS011;74235;48.688;9.708;2024-01-30T14:26:44;2.63;;;2.08;;
84133;SDS011;74235;48.688;9.708;2024-01-30T14:29:12;3.75;;;1.80;;
84133;SDS011;74235;48.688;9.708;2024-01-30T14:34:07;2.70;;;1.77;;
84133;SDS011;74235;48.688;9.708;2024-01-30T14:36:37;2.80;;;1.60;;
84133;SDS011;74235;48.688;9.708;2024-01-30T14:39:05;2.50;;;1.70;;
84133;SDS011;74235;48.688;9.708;2024-01-30T14:41:34;2.00;;;1.70;;
84133;SDS011;74235;48.688;9.708;2024-01-30T14:44:01;2.20;;;1.75;;
84133;SDS011;74235;48.688;9.708;2024-01-30T14:46:31;2.22;;;1.77;;
84133;SDS011;74235;48.688;9.708;2024-01-30T14:48:59;3.17;;;1.65;;
84133;SDS011;74235;48.688;9.708;2024-01-30T14:51:27;3.47;;;1.88;;
84133;SDS011;74235;48.688;9.708;2024-01-30T14:53:58;2.60;;;1.60;;
84133;SDS011;74235;48.688;9.708;2024-01-30T14:56:26;2.33;;;1.70;;
84133;SDS011;74235;48.688;9.708;2024-01-30T14:58:54;2.20;;;1.77;;
84133;SDS011;74235;48.688;9.708;2024-01-30T15:01:22;2.13;;;1.65;;
84133;SDS011;74235;48.688;9.708;2024-01-30T15:03:49;2.28;;;1.80;;